createdAt,value
2022-09-30T00:00:15.731Z,60.04
2022-09-30T00:01:15.704Z,60.28
2022-09-30T00:02:15.730Z,63.43
2022-09-30T00:03:15.771Z,59.92
2022-09-30T00:04:15.689Z,60.32
2022-09-30T00:05:15.669Z,57.88
2022-09-30T00:06:15.651Z,61.20
2022-09-30T00:07:15.656Z,59.83
2022-09-30T00:08:15.649Z,60.05
2022-09-30T00:09:15.813Z,61.31
2022-09-30T00:10:15.670Z,65.21
2022-09-30T00:11:15.643Z,62.03
2022-09-30T00:12:15.640Z,60.90
2022-09-30T00:13:15.604Z,61.04
2022-09-30T00:14:15.708Z,62.52
2022-09-30T00:15:15.596Z,63.02
2022-09-30T00:16:15.704Z,58.08
2022-09-30T00:17:15.589Z,62.60
2022-09-30T00:18:15.573Z,58.63
2022-09-30T00:19:15.668Z,61.02
2022-09-30T00:20:15.555Z,61.83
2022-09-30T00:21:15.554Z,61.55
2022-09-30T00:22:15.548Z,59.39
2022-09-30T00:23:15.596Z,57.74
2022-09-30T00:24:15.523Z,62.52
2022-09-30T00:25:15.511Z,63.96
2022-09-30T00:26:15.510Z,58.69
2022-09-30T00:27:15.497Z,59.80
2022-09-30T00:28:15.483Z,59.20
2022-09-30T00:29:15.552Z,60.47
2022-09-30T00:30:15.466Z,61.54
2022-09-30T00:31:15.516Z,61.28
2022-09-30T00:32:15.497Z,59.88
2022-09-30T00:33:15.454Z,62.66
2022-09-30T00:34:15.439Z,61.90
2022-09-30T00:35:19.293Z,62.53
2022-09-30T00:36:16.431Z,59.49
2022-09-30T00:37:15.412Z,63.64
2022-09-30T00:38:15.402Z,60.08
2022-09-30T00:39:15.417Z,61.65
2022-09-30T00:40:15.395Z,61.95
2022-09-30T00:41:15.405Z,62.75
2022-09-30T00:42:15.379Z,57.21
2022-09-30T00:43:15.364Z,58.79
2022-09-30T00:44:15.361Z,62.18
2022-09-30T00:45:15.431Z,56.22
2022-09-30T00:46:15.417Z,63.04
2022-09-30T00:47:15.364Z,59.91
2022-09-30T00:48:15.332Z,57.07
2022-09-30T00:49:15.310Z,58.88
2022-09-30T00:50:15.314Z,60.68
2022-09-30T00:51:15.316Z,59.79
2022-09-30T00:52:15.327Z,60.07
2022-09-30T00:53:15.284Z,61.36
2022-09-30T00:54:15.271Z,62.05
2022-09-30T00:55:15.270Z,62.32
2022-09-30T00:56:15.254Z,60.96
2022-09-30T00:57:15.250Z,63.99
2022-09-30T00:58:15.255Z,62.39
2022-09-30T00:59:15.227Z,60.35
2022-09-30T01:00:15.215Z,62.93
2022-09-30T01:01:15.282Z,65.14
2022-09-30T01:02:15.290Z,61.52
2022-09-30T01:03:15.204Z,62.07
2022-09-30T01:04:15.265Z,61.09
2022-09-30T01:05:15.182Z,64.15
2022-09-30T01:06:15.187Z,62.51
2022-09-30T01:07:15.175Z,61.46
2022-09-30T01:08:15.158Z,64.92
2022-09-30T01:09:15.410Z,61.74
2022-09-30T01:10:15.163Z,63.60
2022-09-30T01:11:15.142Z,60.09
2022-09-30T01:12:15.125Z,61.41
2022-09-30T01:13:15.122Z,62.99
2022-09-30T01:14:15.108Z,65.26
2022-09-30T01:15:15.104Z,62.38
2022-09-30T01:16:15.162Z,60.09
2022-09-30T01:17:15.089Z,58.91
2022-09-30T01:18:15.084Z,58.44
2022-09-30T01:19:15.077Z,61.21
2022-09-30T01:20:15.087Z,61.03
2022-09-30T01:21:15.046Z,59.38
2022-09-30T01:22:15.062Z,61.00
2022-09-30T01:23:15.052Z,60.25
2022-09-30T01:24:15.037Z,59.10
2022-09-30T01:25:15.016Z,60.70
2022-09-30T01:26:15.039Z,65.57
2022-09-30T01:27:15.023Z,61.39
2022-09-30T01:28:14.996Z,62.25
2022-09-30T01:29:14.992Z,63.08
2022-09-30T01:30:14.987Z,58.33
2022-09-30T01:31:15.002Z,62.64
2022-09-30T01:32:14.963Z,60.17
2022-09-30T01:33:14.991Z,59.04
2022-09-30T01:34:14.953Z,62.15
2022-09-30T01:35:14.940Z,59.81
2022-09-30T01:36:14.941Z,59.01
2022-09-30T01:37:14.923Z,58.10
2022-09-30T01:38:14.919Z,60.87
2022-09-30T01:39:14.986Z,62.35
2022-09-30T01:40:14.912Z,64.48
2022-09-30T01:41:14.885Z,60.93
2022-09-30T01:42:14.891Z,58.04
2022-09-30T01:43:14.906Z,62.68
2022-09-30T01:44:14.873Z,61.58
2022-09-30T01:45:14.867Z,61.97
2022-09-30T01:46:14.907Z,62.55
2022-09-30T01:47:14.851Z,58.58
2022-09-30T01:48:14.842Z,63.49
2022-09-30T01:49:14.850Z,60.87
2022-09-30T01:50:14.817Z,61.86
2022-09-30T01:51:14.811Z,65.35
2022-09-30T01:52:14.794Z,65.71
2022-09-30T01:53:14.785Z,56.51
2022-09-30T01:54:14.777Z,62.44
2022-09-30T01:55:14.794Z,62.36
2022-09-30T01:56:14.775Z,62.45
2022-09-30T01:57:14.763Z,64.95
2022-09-30T01:58:14.764Z,64.14
2022-09-30T01:59:14.768Z,65.00
2022-09-30T02:00:14.752Z,57.68
2022-09-30T02:01:14.854Z,61.90
2022-09-30T02:02:14.747Z,65.93
2022-09-30T02:03:14.728Z,64.74
2022-09-30T02:04:14.715Z,64.77
2022-09-30T02:05:14.703Z,62.92
2022-09-30T02:06:14.690Z,61.28
2022-09-30T02:07:14.708Z,62.14
2022-09-30T02:08:14.675Z,64.17
2022-09-30T02:09:14.832Z,67.37
2022-09-30T02:10:14.668Z,62.01
2022-09-30T02:11:14.652Z,59.19
2022-09-30T02:12:14.665Z,62.68
2022-09-30T02:13:14.708Z,64.88
2022-09-30T02:14:14.637Z,62.32
2022-09-30T02:15:14.624Z,62.04
2022-09-30T02:16:14.654Z,64.15
2022-09-30T02:17:14.626Z,62.55
2022-09-30T02:18:14.605Z,59.10
2022-09-30T02:19:14.591Z,63.75
2022-09-30T02:20:14.585Z,60.61
2022-09-30T02:21:14.569Z,61.66
2022-09-30T02:22:14.565Z,62.55
2022-09-30T02:23:14.584Z,65.89
2022-09-30T02:24:14.574Z,60.53
2022-09-30T02:25:14.534Z,59.19
2022-09-30T02:26:14.542Z,62.48
2022-09-30T02:27:14.558Z,64.58
2022-09-30T02:28:14.527Z,61.45
2022-09-30T02:29:14.536Z,58.30
2022-09-30T02:30:14.506Z,61.21
2022-09-30T02:31:14.553Z,64.90
2022-09-30T02:32:14.493Z,64.23
2022-09-30T02:33:15.398Z,62.60
2022-09-30T02:34:14.582Z,61.56
2022-09-30T02:35:14.466Z,61.70
2022-09-30T02:36:14.457Z,63.32
2022-09-30T02:37:14.453Z,63.59
2022-09-30T02:38:14.444Z,61.59
2022-09-30T02:39:14.469Z,62.13
2022-09-30T02:40:14.446Z,63.71
2022-09-30T02:41:14.424Z,65.26
2022-09-30T02:42:14.417Z,62.87
2022-09-30T02:43:14.408Z,62.97
2022-09-30T02:44:14.453Z,59.77
2022-09-30T02:45:14.408Z,65.01
2022-09-30T02:46:14.427Z,61.47
2022-09-30T02:47:14.382Z,62.35
2022-09-30T02:48:14.373Z,63.99
2022-09-30T02:49:14.453Z,65.23
2022-09-30T02:50:14.379Z,58.67
2022-09-30T02:51:14.347Z,64.02
2022-09-30T02:52:14.353Z,63.89
2022-09-30T02:53:14.334Z,60.99
2022-09-30T02:54:14.319Z,66.22
2022-09-30T02:55:14.324Z,62.14
2022-09-30T02:56:14.329Z,60.57
2022-09-30T02:57:14.326Z,61.81
2022-09-30T02:58:14.325Z,67.89
2022-09-30T02:59:14.344Z,65.62
2022-09-30T03:00:14.339Z,61.77
2022-09-30T03:01:14.340Z,64.15
2022-09-30T03:02:14.324Z,62.21
2022-09-30T03:03:14.295Z,66.46
2022-09-30T03:04:14.263Z,63.00
2022-09-30T03:05:14.254Z,66.22
2022-09-30T03:06:14.240Z,62.25
2022-09-30T03:07:14.231Z,64.85
2022-09-30T03:08:14.236Z,64.07
2022-09-30T03:09:14.388Z,67.03
2022-09-30T03:12:21.775Z,64.04
2022-09-30T03:13:21.782Z,63.13
2022-09-30T03:14:21.788Z,63.86
2022-09-30T03:15:21.745Z,65.97
2022-09-30T03:16:21.755Z,65.95
2022-09-30T03:17:21.731Z,66.14
2022-09-30T03:18:21.715Z,62.66
2022-09-30T03:19:21.712Z,65.91
2022-09-30T03:20:21.775Z,65.04
2022-09-30T03:21:21.691Z,67.15
2022-09-30T03:22:21.704Z,64.78
2022-09-30T03:23:21.695Z,65.78
2022-09-30T03:24:21.710Z,61.25
2022-09-30T03:25:21.675Z,64.61
2022-09-30T03:26:21.691Z,63.73
2022-09-30T03:27:21.660Z,64.71
2022-09-30T03:28:21.641Z,68.31
2022-09-30T03:29:21.663Z,63.41
2022-09-30T03:30:24.517Z,64.79
2022-09-30T03:31:21.759Z,63.58
2022-09-30T03:32:21.640Z,66.35
2022-09-30T03:33:21.600Z,62.93
2022-09-30T03:34:21.595Z,65.14
2022-09-30T03:35:21.595Z,68.52
2022-09-30T03:36:21.589Z,65.23
2022-09-30T03:37:21.580Z,66.77
2022-09-30T03:38:21.587Z,65.40
2022-09-30T03:39:21.564Z,62.35
2022-09-30T03:40:21.544Z,63.97
2022-09-30T03:41:21.542Z,65.44
2022-09-30T03:42:23.111Z,65.37
2022-09-30T03:43:21.560Z,68.05
2022-09-30T03:44:21.544Z,64.12
2022-09-30T03:45:21.533Z,67.07
2022-09-30T03:46:21.533Z,64.78
2022-09-30T03:47:21.495Z,66.51
2022-09-30T03:48:21.563Z,64.58
2022-09-30T03:49:21.564Z,67.97
2022-09-30T03:50:21.480Z,64.57
2022-09-30T03:51:22.157Z,65.70
2022-09-30T03:52:21.459Z,65.88
2022-09-30T03:53:21.442Z,64.72
2022-09-30T03:54:21.478Z,66.34
2022-09-30T03:55:21.533Z,64.79
2022-09-30T03:56:21.427Z,67.21
2022-09-30T03:57:21.445Z,67.05
2022-09-30T03:58:21.440Z,67.17
2022-09-30T03:59:21.439Z,67.80
2022-09-30T04:00:21.420Z,65.93
2022-09-30T04:01:21.583Z,68.60
2022-09-30T04:02:21.455Z,67.21
2022-09-30T04:03:21.373Z,65.67
2022-09-30T04:04:21.379Z,65.24
2022-09-30T04:05:21.454Z,66.96
2022-09-30T04:06:21.355Z,64.03
2022-09-30T04:07:21.365Z,64.97
2022-09-30T04:08:21.339Z,64.85
2022-09-30T04:09:21.448Z,66.42
2022-09-30T04:10:21.324Z,63.42
2022-09-30T04:11:21.370Z,65.67
2022-09-30T04:12:21.309Z,66.78
2022-09-30T04:13:21.439Z,66.56
2022-09-30T04:14:21.283Z,62.85
2022-09-30T04:15:21.285Z,66.25
2022-09-30T04:16:21.428Z,67.10
2022-09-30T04:17:21.358Z,66.27
2022-09-30T04:18:21.266Z,66.61
2022-09-30T04:19:21.267Z,63.74
2022-09-30T04:20:21.283Z,67.59
2022-09-30T04:21:21.242Z,62.94
2022-09-30T04:22:24.267Z,66.51
2022-09-30T04:23:22.251Z,66.98
2022-09-30T04:24:21.222Z,64.35
2022-09-30T04:25:21.303Z,65.71
2022-09-30T04:26:21.199Z,63.86
2022-09-30T04:27:21.189Z,66.87
2022-09-30T04:28:21.205Z,66.36
2022-09-30T04:29:21.190Z,65.87
2022-09-30T04:30:24.722Z,66.04
2022-09-30T04:31:22.236Z,68.16
2022-09-30T04:32:21.146Z,66.18
2022-09-30T04:33:21.139Z,63.47
2022-09-30T04:34:21.212Z,67.28
2022-09-30T04:35:21.195Z,66.99
2022-09-30T04:36:21.128Z,68.02
2022-09-30T04:37:21.123Z,65.57
2022-09-30T04:38:21.111Z,68.39
2022-09-30T04:39:21.122Z,67.63
2022-09-30T04:40:21.121Z,65.90
2022-09-30T04:41:21.094Z,64.58
2022-09-30T04:42:21.077Z,67.37
2022-09-30T04:43:21.071Z,66.11
2022-09-30T04:44:21.054Z,62.01
2022-09-30T04:45:21.055Z,64.37
2022-09-30T04:46:21.066Z,66.75
2022-09-30T04:47:21.036Z,65.00
2022-09-30T04:48:21.038Z,65.43
2022-09-30T04:49:21.048Z,67.54
2022-09-30T04:50:21.021Z,67.58
2022-09-30T04:51:21.045Z,66.38
2022-09-30T04:52:21.004Z,65.94
2022-09-30T04:53:20.998Z,62.59
2022-09-30T04:54:20.992Z,63.60
2022-09-30T04:55:20.988Z,67.14
2022-09-30T04:56:20.980Z,65.43
2022-09-30T04:57:20.992Z,63.10
2022-09-30T04:58:20.945Z,64.53
2022-09-30T04:59:21.009Z,64.13
2022-09-30T05:00:20.946Z,65.06
2022-09-30T05:01:20.972Z,66.48
2022-09-30T05:02:20.964Z,68.63
2022-09-30T05:03:21.013Z,66.57
2022-09-30T05:04:21.000Z,61.52
2022-09-30T05:05:20.911Z,67.98
2022-09-30T05:06:20.916Z,63.90
2022-09-30T05:07:20.892Z,67.16
2022-09-30T05:08:20.879Z,66.43
2022-09-30T05:09:20.959Z,66.88
2022-09-30T05:10:20.895Z,65.34
2022-09-30T05:11:20.879Z,65.63
2022-09-30T05:12:20.847Z,67.63
2022-09-30T05:13:21.060Z,67.32
2022-09-30T05:14:20.828Z,65.52
2022-09-30T05:15:20.830Z,68.39
2022-09-30T05:16:20.897Z,67.48
2022-09-30T05:17:20.807Z,65.53
2022-09-30T05:18:20.811Z,63.15
2022-09-30T05:19:20.897Z,64.62
2022-09-30T05:20:21.534Z,64.88
2022-09-30T05:21:20.905Z,64.56
2022-09-30T05:22:20.788Z,65.96
2022-09-30T05:23:20.777Z,66.64
2022-09-30T05:24:20.760Z,68.03
2022-09-30T05:25:20.757Z,66.93
2022-09-30T05:26:20.762Z,64.13
2022-09-30T05:27:20.759Z,68.43
2022-09-30T05:28:20.954Z,63.50
2022-09-30T05:29:20.782Z,64.79
2022-09-30T05:30:20.814Z,61.95
2022-09-30T05:31:20.854Z,65.08
2022-09-30T05:32:20.708Z,66.04
2022-09-30T05:33:20.726Z,63.96
2022-09-30T05:34:20.699Z,65.95
2022-09-30T05:35:20.667Z,65.92
2022-09-30T05:36:20.666Z,66.51
2022-09-30T05:37:20.695Z,67.06
2022-09-30T05:38:20.706Z,68.24
2022-09-30T05:39:20.720Z,65.34
2022-09-30T05:40:20.658Z,67.02
2022-09-30T05:41:20.634Z,67.56
2022-09-30T05:42:20.642Z,61.81
2022-09-30T05:43:20.618Z,65.98
2022-09-30T05:44:20.621Z,67.44
2022-09-30T05:45:20.643Z,64.62
2022-09-30T05:46:20.668Z,64.55
2022-09-30T05:47:20.584Z,64.24
2022-09-30T05:48:20.581Z,65.57
2022-09-30T05:49:20.584Z,63.87
2022-09-30T05:50:20.616Z,66.27
2022-09-30T05:51:20.604Z,63.58
2022-09-30T05:52:20.561Z,65.81
2022-09-30T05:53:20.546Z,66.40
2022-09-30T05:54:20.545Z,69.35
2022-09-30T05:55:20.540Z,66.91
2022-09-30T05:56:20.529Z,66.47
2022-09-30T05:57:20.541Z,66.94
2022-09-30T05:58:20.559Z,64.49
2022-09-30T05:59:20.513Z,68.29
2022-09-30T06:00:20.496Z,67.46
2022-09-30T06:01:20.495Z,67.63
2022-09-30T06:02:20.580Z,67.42
2022-09-30T06:03:20.461Z,64.03
2022-09-30T06:04:20.451Z,65.29
2022-09-30T06:05:20.454Z,68.23
2022-09-30T06:06:20.438Z,67.07
2022-09-30T06:07:20.453Z,61.55
2022-09-30T06:08:20.431Z,67.00
2022-09-30T06:09:20.453Z,61.59
2022-09-30T06:10:20.408Z,68.35
2022-09-30T06:11:20.405Z,65.85
2022-09-30T06:12:20.402Z,66.48
2022-09-30T06:13:20.404Z,66.85
2022-09-30T06:14:20.439Z,65.93
2022-09-30T06:15:20.365Z,66.65
2022-09-30T06:16:21.616Z,66.62
2022-09-30T06:17:21.589Z,65.67
2022-09-30T06:18:21.489Z,66.12
2022-09-30T06:19:22.346Z,67.86
2022-09-30T06:20:22.269Z,68.14
2022-09-30T06:21:20.388Z,65.61
2022-09-30T06:22:20.313Z,65.77
2022-09-30T06:23:20.478Z,65.03
2022-09-30T06:24:20.295Z,67.04
2022-09-30T06:25:20.290Z,67.49
2022-09-30T06:26:20.308Z,66.58
2022-09-30T06:27:20.275Z,66.89
2022-09-30T06:28:20.268Z,66.59
2022-09-30T06:29:20.305Z,65.83
2022-09-30T06:30:20.252Z,63.24
2022-09-30T06:31:20.368Z,66.99
2022-09-30T06:32:20.237Z,65.19
2022-09-30T06:33:20.226Z,69.52
2022-09-30T06:34:20.227Z,68.57
2022-09-30T06:35:20.214Z,63.10
2022-09-30T06:36:20.204Z,66.43
2022-09-30T06:37:20.220Z,66.47
2022-09-30T06:38:20.194Z,65.65
2022-09-30T06:39:20.267Z,64.09
2022-09-30T06:40:20.170Z,65.20
2022-09-30T06:41:20.181Z,66.60
2022-09-30T06:42:20.174Z,65.42
2022-09-30T06:43:20.709Z,68.18
2022-09-30T06:44:20.145Z,66.78
2022-09-30T06:45:31.170Z,66.32
2022-09-30T06:46:27.273Z,66.92
2022-09-30T06:47:25.609Z,65.93
2022-09-30T06:48:33.093Z,66.37
2022-09-30T06:49:21.137Z,68.67
2022-09-30T06:50:25.482Z,64.57
2022-09-30T06:51:21.096Z,67.15
2022-09-30T06:52:20.133Z,67.39
2022-09-30T06:53:20.085Z,67.06
2022-09-30T06:54:20.118Z,65.49
2022-09-30T06:55:20.064Z,66.55
2022-09-30T06:56:20.050Z,66.91
2022-09-30T06:57:20.066Z,66.75
2022-09-30T06:58:20.043Z,68.64
2022-09-30T06:59:20.121Z,68.69
2022-09-30T07:00:20.023Z,65.97
2022-09-30T07:01:20.110Z,66.13
2022-09-30T07:02:20.059Z,65.93
2022-09-30T07:03:20.023Z,68.11
2022-09-30T07:04:20.359Z,65.00
2022-09-30T07:05:19.989Z,65.05
2022-09-30T07:06:20.008Z,67.01
2022-09-30T07:07:19.961Z,65.47
2022-09-30T07:08:19.955Z,65.47
2022-09-30T07:09:20.057Z,68.74
2022-09-30T07:10:19.946Z,67.93
2022-09-30T07:11:19.957Z,65.33
2022-09-30T07:12:19.937Z,67.15
2022-09-30T07:13:19.930Z,69.00
2022-09-30T07:14:19.921Z,67.61
2022-09-30T07:15:19.915Z,62.97
2022-09-30T07:16:20.016Z,68.48
2022-09-30T07:17:19.914Z,67.13
2022-09-30T07:18:19.890Z,66.62
2022-09-30T07:19:19.879Z,66.32
2022-09-30T07:20:19.966Z,70.01
2022-09-30T07:21:19.873Z,67.17
2022-09-30T07:22:19.876Z,67.29
2022-09-30T07:23:22.178Z,67.32
2022-09-30T07:24:20.858Z,68.28
2022-09-30T07:25:19.838Z,67.26
2022-09-30T07:26:19.836Z,65.78
2022-09-30T07:27:19.806Z,67.72
2022-09-30T07:28:19.835Z,70.26
2022-09-30T07:29:19.836Z,65.74
2022-09-30T07:30:26.804Z,67.13
2022-09-30T07:31:32.533Z,67.91
2022-09-30T07:32:20.819Z,68.74
2022-09-30T07:33:19.767Z,68.22
2022-09-30T07:34:19.788Z,67.42
2022-09-30T07:35:19.753Z,67.04
2022-09-30T07:36:19.741Z,66.83
2022-09-30T07:37:19.738Z,68.36
2022-09-30T07:38:19.716Z,66.74
2022-09-30T07:39:19.712Z,65.60
2022-09-30T07:40:19.753Z,68.40
2022-09-30T07:41:19.704Z,65.39
2022-09-30T07:42:22.482Z,67.03
2022-09-30T07:43:19.702Z,68.00
2022-09-30T07:44:19.707Z,67.55
2022-09-30T07:45:19.667Z,65.78
2022-09-30T07:46:19.669Z,66.88
2022-09-30T07:47:19.657Z,67.75
2022-09-30T07:48:19.662Z,67.51
2022-09-30T07:49:19.651Z,63.51
2022-09-30T07:50:19.653Z,65.60
2022-09-30T07:51:19.627Z,68.19
2022-09-30T07:52:19.619Z,65.18
2022-09-30T07:53:19.601Z,66.05
2022-09-30T07:54:19.691Z,66.42
2022-09-30T07:55:19.589Z,67.01
2022-09-30T07:56:19.589Z,67.28
2022-09-30T07:57:19.574Z,66.70
2022-09-30T07:58:19.565Z,65.70
2022-09-30T07:59:19.571Z,63.57
2022-09-30T08:00:40.971Z,65.27
2022-09-30T08:01:20.632Z,68.61
2022-09-30T08:02:19.628Z,68.42
2022-09-30T08:03:19.552Z,66.70
2022-09-30T08:04:19.538Z,66.14
2022-09-30T08:05:19.537Z,66.56
2022-09-30T08:06:19.563Z,64.56
2022-09-30T08:07:19.529Z,67.35
2022-09-30T08:08:19.569Z,68.34
2022-09-30T08:09:19.572Z,67.72
2022-09-30T08:11:19.468Z,66.00
2022-09-30T08:12:19.469Z,67.46
2022-09-30T08:13:19.516Z,66.57
2022-09-30T08:14:19.538Z,65.60
2022-09-30T08:15:19.440Z,66.30
2022-09-30T08:16:19.459Z,65.30
2022-09-30T08:17:19.426Z,68.45
2022-09-30T08:18:19.431Z,68.91
2022-09-30T08:19:19.430Z,66.07
2022-09-30T08:20:22.475Z,68.31
2022-09-30T08:21:19.451Z,67.17
2022-09-30T08:22:19.396Z,66.74
2022-09-30T08:23:19.442Z,66.37
2022-09-30T08:24:20.214Z,68.79
2022-09-30T08:25:19.441Z,68.58
2022-09-30T08:26:19.381Z,68.37
2022-09-30T08:27:19.567Z,68.76
2022-09-30T08:28:19.342Z,68.11
2022-09-30T08:29:35.816Z,66.94
2022-09-30T08:30:20.339Z,66.35
2022-09-30T08:31:19.415Z,65.08
2022-09-30T08:32:19.335Z,66.65
2022-09-30T08:33:19.327Z,68.16
2022-09-30T08:34:19.386Z,67.26
2022-09-30T08:35:19.270Z,68.76
2022-09-30T08:36:19.306Z,67.71
2022-09-30T08:37:19.254Z,67.27
2022-09-30T08:38:19.240Z,68.88
2022-09-30T08:39:19.253Z,67.18
2022-09-30T08:40:19.234Z,68.13
2022-09-30T08:41:19.230Z,66.47
2022-09-30T08:43:20.204Z,65.45
2022-09-30T08:44:19.208Z,67.96
2022-09-30T08:45:19.193Z,67.53
2022-09-30T08:46:19.324Z,68.39
2022-09-30T08:47:19.177Z,68.81
2022-09-30T08:48:19.205Z,67.21
2022-09-30T08:49:19.223Z,66.47
2022-09-30T08:50:19.156Z,69.87
2022-09-30T08:51:19.131Z,66.36
2022-09-30T08:52:30.213Z,67.11
2022-09-30T08:53:20.140Z,66.46
2022-09-30T08:54:19.111Z,66.83
2022-09-30T08:55:19.100Z,65.24
2022-09-30T08:56:19.098Z,66.96
2022-09-30T08:57:19.134Z,66.21
2022-09-30T08:58:19.107Z,65.60
2022-09-30T08:59:19.072Z,66.62
2022-09-30T09:00:19.127Z,65.73
2022-09-30T09:01:19.112Z,65.97
2022-09-30T09:02:19.069Z,65.48
2022-09-30T09:03:19.028Z,64.74
2022-09-30T09:04:19.129Z,67.17
2022-09-30T09:05:19.016Z,65.56
2022-09-30T09:06:19.015Z,65.24
2022-09-30T09:07:19.000Z,65.97
2022-09-30T09:08:18.995Z,65.77
2022-09-30T09:09:19.038Z,65.76
2022-09-30T09:10:19.008Z,66.64
2022-09-30T09:11:18.978Z,67.03
2022-09-30T09:12:18.973Z,68.40
2022-09-30T09:13:26.486Z,64.77
2022-09-30T09:14:18.951Z,66.56
2022-09-30T09:15:18.954Z,63.89
2022-09-30T09:16:18.988Z,67.60
2022-09-30T09:17:18.962Z,67.68
2022-09-30T09:18:23.726Z,66.62
2022-09-30T09:19:19.904Z,66.61
2022-09-30T09:20:18.894Z,64.48
2022-09-30T09:21:18.890Z,64.24
2022-09-30T09:22:22.481Z,66.20
2022-09-30T09:23:19.879Z,66.18
2022-09-30T09:24:18.882Z,66.44
2022-09-30T09:25:18.881Z,66.86
2022-09-30T09:26:18.851Z,65.96
2022-09-30T09:27:18.963Z,66.26
2022-09-30T09:28:18.869Z,64.95
2022-09-30T09:29:18.920Z,65.95
2022-09-30T09:30:18.816Z,63.70
2022-09-30T09:31:18.905Z,65.56
2022-09-30T09:32:18.793Z,66.28
2022-09-30T09:33:18.901Z,66.25
2022-09-30T09:34:18.778Z,65.08
2022-09-30T09:35:18.848Z,66.87
2022-09-30T09:36:18.757Z,65.39
2022-09-30T09:37:18.764Z,62.50
2022-09-30T09:38:18.741Z,63.71
2022-09-30T09:39:18.920Z,63.38
2022-09-30T09:40:18.788Z,61.10
2022-09-30T09:41:18.728Z,61.36
2022-09-30T09:42:18.726Z,59.52
2022-09-30T09:43:18.716Z,62.35
2022-09-30T09:44:18.753Z,61.99
2022-09-30T09:45:18.693Z,62.68
2022-09-30T09:46:18.758Z,60.47
2022-09-30T09:47:18.672Z,59.86
2022-09-30T09:48:18.704Z,60.46
2022-09-30T09:49:18.660Z,61.50
2022-09-30T09:50:18.747Z,59.09
2022-09-30T09:51:18.659Z,60.15
2022-09-30T09:52:18.643Z,61.30
2022-09-30T09:53:18.650Z,62.07
2022-09-30T09:54:18.697Z,63.84
2022-09-30T09:55:18.611Z,62.18
2022-09-30T09:56:18.659Z,62.05
2022-09-30T09:57:18.605Z,62.42
2022-09-30T09:58:18.673Z,59.77
2022-09-30T09:59:20.160Z,60.81
2022-09-30T10:00:18.571Z,61.37
2022-09-30T10:01:18.591Z,60.96
2022-09-30T10:02:18.585Z,60.97
2022-09-30T10:03:18.545Z,62.99
2022-09-30T10:04:18.593Z,61.89
2022-09-30T10:05:18.540Z,57.28
2022-09-30T10:06:18.505Z,59.29
2022-09-30T10:07:18.617Z,60.05
2022-09-30T10:08:18.507Z,59.23
2022-09-30T10:09:18.518Z,57.17
2022-09-30T10:10:23.042Z,59.18
2022-09-30T10:11:19.491Z,60.78
2022-09-30T10:12:18.489Z,62.14
2022-09-30T10:13:18.467Z,58.88
2022-09-30T10:14:18.492Z,59.20
2022-09-30T10:15:18.456Z,59.86
2022-09-30T10:16:18.519Z,60.50
2022-09-30T10:17:18.443Z,59.81
2022-09-30T10:18:18.426Z,58.33
2022-09-30T10:19:18.409Z,60.74
2022-09-30T10:20:18.404Z,60.19
2022-09-30T10:21:18.404Z,61.29
2022-09-30T10:22:18.399Z,63.71
2022-09-30T10:23:18.412Z,61.22
2022-09-30T10:24:18.440Z,59.45
2022-09-30T10:25:18.378Z,61.83
2022-09-30T10:26:18.429Z,59.99
2022-09-30T10:27:18.357Z,63.43
2022-09-30T10:28:18.393Z,62.04
2022-09-30T10:29:18.394Z,63.30
2022-09-30T10:30:18.345Z,61.62
2022-09-30T10:31:18.414Z,61.37
2022-09-30T10:32:18.411Z,62.66
2022-09-30T10:33:18.304Z,63.80
2022-09-30T10:34:18.301Z,61.03
2022-09-30T10:35:18.378Z,63.05
2022-09-30T10:40:32.986Z,62.94
2022-09-30T10:41:32.979Z,62.08
2022-09-30T10:42:32.960Z,63.04
2022-09-30T10:43:32.956Z,63.65
2022-09-30T10:44:33.093Z,60.80
2022-09-30T10:45:33.074Z,59.34
2022-09-30T10:46:33.107Z,60.56
2022-09-30T10:47:36.923Z,59.67
2022-09-30T10:48:32.920Z,61.74
2022-09-30T10:49:32.955Z,61.11
2022-09-30T10:50:32.937Z,60.57
2022-09-30T10:51:32.914Z,60.88
2022-09-30T10:52:33.001Z,61.79
2022-09-30T10:55:44.756Z,61.02
2022-09-30T10:56:44.675Z,61.72
2022-09-30T10:57:44.674Z,60.53
2022-09-30T10:58:44.708Z,62.50
2022-09-30T10:59:44.649Z,62.33
2022-09-30T11:00:44.693Z,60.45
2022-09-30T11:01:44.684Z,60.04
2022-09-30T11:02:44.690Z,61.05
2022-09-30T11:03:44.672Z,61.59
2022-09-30T11:04:44.612Z,60.63
2022-09-30T11:05:44.593Z,60.82
2022-09-30T11:06:44.590Z,59.59
2022-09-30T11:07:44.616Z,59.56
2022-09-30T11:08:44.590Z,60.71
2022-09-30T11:09:44.585Z,59.24
2022-09-30T11:10:44.568Z,61.93
2022-09-30T11:11:44.555Z,61.05
2022-09-30T11:12:44.564Z,59.66
2022-09-30T11:13:44.568Z,60.61
2022-09-30T11:14:44.551Z,61.35
2022-09-30T11:15:44.538Z,61.44
2022-09-30T11:16:44.561Z,60.58
2022-09-30T11:17:44.516Z,61.61
2022-09-30T11:18:44.532Z,60.98
2022-09-30T11:19:44.512Z,60.04
2022-09-30T11:20:44.498Z,61.91
2022-09-30T11:21:44.476Z,62.43
2022-09-30T11:22:44.472Z,59.63
2022-09-30T11:23:44.482Z,59.30
2022-09-30T11:24:44.451Z,60.79
2022-09-30T11:25:44.451Z,59.19
2022-09-30T11:26:44.680Z,60.42
2022-09-30T11:27:44.497Z,61.78
2022-09-30T11:28:44.421Z,60.36
2022-09-30T11:29:44.429Z,60.30
2022-09-30T11:30:44.408Z,57.26
2022-09-30T11:31:44.488Z,60.86
2022-09-30T11:32:44.389Z,57.72
2022-09-30T11:33:44.385Z,57.76
2022-09-30T11:34:44.382Z,58.05
2022-09-30T11:35:44.396Z,59.52
2022-09-30T11:36:44.358Z,58.99
2022-09-30T11:37:45.078Z,60.23
2022-09-30T11:38:44.348Z,58.35
2022-09-30T11:39:44.359Z,58.85
2022-09-30T11:40:44.328Z,61.38
2022-09-30T11:41:44.343Z,59.88
2022-09-30T11:42:44.373Z,60.37
2022-09-30T11:43:44.460Z,57.66
2022-09-30T11:44:44.307Z,62.13
2022-09-30T11:45:44.414Z,61.22
2022-09-30T11:46:44.282Z,61.58
2022-09-30T11:47:44.281Z,60.62
2022-09-30T11:48:44.260Z,62.24
2022-09-30T11:49:44.258Z,60.30
2022-09-30T11:50:44.255Z,57.24
2022-09-30T11:51:44.271Z,60.10
2022-09-30T11:52:44.270Z,59.44
2022-09-30T11:53:44.232Z,58.39
2022-09-30T11:54:44.247Z,60.31
2022-09-30T11:55:44.227Z,59.81
2022-09-30T11:56:44.204Z,59.98
2022-09-30T11:57:44.194Z,58.31
2022-09-30T11:58:44.206Z,58.84
2022-09-30T11:59:44.196Z,62.02
2022-09-30T12:00:47.145Z,61.84
2022-09-30T12:01:44.236Z,59.60
2022-09-30T12:02:44.221Z,59.31
2022-09-30T12:03:44.183Z,58.84
2022-09-30T12:04:44.159Z,60.05
2022-09-30T12:05:44.134Z,61.83
2022-09-30T12:06:44.133Z,62.56
2022-09-30T12:07:44.139Z,62.66
2022-09-30T12:08:44.116Z,59.74
2022-09-30T12:09:44.139Z,58.69
2022-09-30T12:10:44.095Z,60.51
2022-09-30T12:11:44.096Z,59.71
2022-09-30T12:12:44.089Z,58.12
2022-09-30T12:13:44.083Z,60.73
2022-09-30T12:14:44.059Z,60.69
2022-09-30T12:15:44.116Z,61.63
2022-09-30T12:16:44.254Z,61.70
2022-09-30T12:17:44.077Z,61.04
2022-09-30T12:18:44.031Z,62.54
2022-09-30T12:19:44.041Z,61.42
2022-09-30T12:20:44.045Z,62.53
2022-09-30T12:21:44.027Z,61.26
2022-09-30T12:22:43.993Z,63.28
2022-09-30T12:23:43.978Z,62.36
2022-09-30T12:24:43.977Z,62.09
2022-09-30T12:25:43.972Z,63.37
2022-09-30T12:26:43.957Z,63.53
2022-09-30T12:27:44.125Z,61.86
2022-09-30T12:28:43.939Z,61.65
2022-09-30T12:29:44.162Z,60.99
2022-09-30T12:30:43.929Z,62.16
2022-09-30T12:31:43.996Z,62.14
2022-09-30T12:32:43.933Z,60.51
2022-09-30T12:33:43.925Z,62.28
2022-09-30T12:34:43.904Z,63.14
2022-09-30T12:35:43.922Z,61.93
2022-09-30T12:36:46.335Z,63.09
2022-09-30T12:37:43.870Z,62.44
2022-09-30T12:38:43.860Z,63.00
2022-09-30T12:39:43.865Z,62.84
2022-09-30T12:40:45.168Z,62.20
2022-09-30T12:41:44.095Z,61.24
2022-09-30T12:42:43.824Z,61.53
2022-09-30T12:43:43.807Z,62.78
2022-09-30T12:44:43.845Z,61.03
2022-09-30T12:45:43.803Z,57.43
2022-09-30T12:46:43.800Z,59.59
2022-09-30T12:47:43.790Z,62.42
2022-09-30T12:48:43.845Z,62.06
2022-09-30T12:49:43.779Z,61.46
2022-09-30T12:50:43.786Z,60.10
2022-09-30T12:51:43.758Z,61.36
2022-09-30T12:52:43.756Z,59.54
2022-09-30T12:53:43.789Z,63.33
2022-09-30T12:54:43.725Z,64.49
2022-09-30T12:55:43.737Z,63.50
2022-09-30T12:56:43.743Z,61.75
2022-09-30T12:57:43.731Z,60.91
2022-09-30T12:58:43.690Z,61.49
2022-09-30T12:59:43.679Z,63.20
2022-09-30T13:00:43.810Z,60.63
2022-09-30T13:01:43.893Z,61.29
2022-09-30T13:02:43.876Z,63.45